• Join FlightAware (Why Join?)
  • Login
  • US Flag 
10:33AM EDT


 

Airport Tracker/Info


-or-


 

Live Flight TrackerFlight Track Log ✈ N888FM ✈ 27-Jan-2014 ✈ KAVP - KMCO

Flight Track Log - Related Links

Times and Time Zones

All times are in EST time to prevent confusion due to time zone crossing. See the N888FM flight status page for this flight to view local times or setup timezone preferences in your user account.

Time Position Orientation Groundspeed Altitude Reporting Facility
EST Latitude Longitude Course Direction KTS MPH feet Rate Location/Type
08:01AM 41.2658 -75.7808 209° Southwest 151 174 4,900  Level New York Center
08:02AM 41.2292 -75.8083 209° Southwest 169 194 5,800 900 Climbing New York Center
08:03AM 41.1839 -75.8436 210° Southwest 185 213 6,700 1,020 Climbing New York Center
08:04AM 41.1344 -75.8811 210° Southwest 191 220 7,900 1,080 Climbing New York Center
08:05AM 41.0950 -75.9250 220° Southwest 191 220 8,900 900 Climbing New York Center
08:06AM 41.0697 -75.9808 239° Southwest 184 212 9,800 900 Climbing New York Center
08:07AM 41.0467 -76.0314 239° Southwest 184 212 10,800 1,020 Climbing New York Center
08:08AM 41.0233 -76.0875 241° Southwest 169 194 11,900 1,020 Climbing New York Center
08:09AM 41.0022 -76.1381 241° Southwest 162 186 12,900 900 Climbing New York Center
08:10AM 40.9775 -76.1800 232° Southwest 156 180 13,800 900 Climbing New York Center
08:11AM 40.9428 -76.2075 211° Southwest 162 186 14,800 960 Climbing New York Center
08:12AM 40.8997 -76.2369 207° Southwest 172 198 15,800 1,020 Climbing New York Center
08:13AM 40.8544 -76.2692 208° Southwest 172 198 16,900 1,200 Climbing New York Center
08:14AM 40.8114 -76.2986 207° Southwest 172 198 18,300 1,140 Climbing New York Center
08:15AM 40.7728 -76.3256 208° Southwest 172 198 19,200 900 Climbing New York Center
08:16AM 40.7317 -76.3550 208° Southwest 172 198 20,100 840 Climbing New York Center
08:17AM 40.6908 -76.3844 209° Southwest 172 198 20,900 780 Climbing New York Center
08:18AM 40.6497 -76.4114 206° Southwest 167 192 21,700 780 Climbing New York Center
08:19AM 40.6067 -76.4406 207° Southwest 167 192 22,500 780 Climbing New York Center
08:20AM 40.5658 -76.4700 209° Southwest 167 192 23,300 780 Climbing New York Center
08:21AM 40.5269 -76.4969 208° Southwest 167 192 24,100 780 Climbing New York Center
08:22AM 40.4861 -76.5233 206° Southwest 167 192 24,900 780 Climbing New York Center
08:23AM 40.4453 -76.5500 206° Southwest 167 192 25,700 540 Climbing New York Center
08:24AM 40.4042 -76.5794 209° Southwest 167 192 26,000 120 Climbing New York Center
08:25AM 40.3608 -76.6111 209° Southwest 172 198 26,000  Level New York Center
08:26AM 40.3111 -76.6450 207° Southwest 184 212 26,000  Level New York Center
08:28AM 40.2106 -76.7133 207° Southwest 201 231 26,000  Level Washington Center
08:29AM 40.1603 -76.7478 208° Southwest 206 237 26,000  Level Washington Center
08:30AM 40.1078 -76.7794 205° Southwest 206 237 26,000  Level Washington Center
08:31AM 40.0553 -76.8167 208° Southwest 206 237 26,000  Level Washington Center
08:32AM 40.0028 -76.8536 208° Southwest 211 243 26,000  Level Washington Center
08:33AM 39.9506 -76.8878 207° Southwest 211 243 26,000  Level Washington Center
08:34AM 39.8981 -76.9219 207° Southwest 211 243 26,000  Level Washington Center
08:35AM 39.8456 -76.9561 207° Southwest 216 249 26,000  Level Washington Center
08:36AM 39.7950 -76.9931 209° Southwest 216 249 26,000  Level Washington Center
08:37AM 39.7425 -77.0272 207° Southwest 216 249 26,000  Level Washington Center
08:38AM 39.6900 -77.0611 206° Southwest 216 249 26,000  Level Washington Center
08:39AM 39.6397 -77.0978 209° Southwest 216 249 26,000  Level Washington Center
08:40AM 39.5850 -77.1289 204° Southwest 216 249 26,000  Level Washington Center
08:41AM 39.5325 -77.1683 210° Southwest 216 249 26,000  Level Washington Center
08:42AM 39.4819 -77.2022 207° Southwest 216 249 26,000  Level Washington Center
08:43AM 39.4294 -77.2358 206° Southwest 216 249 26,000  Level Washington Center
08:44AM 39.3769 -77.2697 207° Southwest 216 249 26,000  Level Washington Center
08:45AM 39.3244 -77.3058 208° Southwest 221 254 26,000  Level Washington Center
08:46AM 39.2697 -77.3422 207° Southwest 221 254 26,000  Level Washington Center
08:47AM 39.2128 -77.3811 208° Southwest 221 254 26,000  Level Washington Center
08:48AM 39.1603 -77.4144 206° Southwest 221 254 26,000  Level Washington Center
08:49AM 39.1033 -77.4506 206° Southwest 221 254 26,000  Level Washington Center
08:50AM 39.0506 -77.4867 208° Southwest 221 254 26,000  Level Washington Center
08:51AM 38.9958 -77.5228 207° Southwest 221 254 26,000  Level Washington Center
08:52AM 38.9431 -77.5586 208° Southwest 221 254 26,000  Level Washington Center
08:53AM 38.8883 -77.5919 205° Southwest 221 254 26,000  Level Washington Center
08:54AM 38.8400 -77.6253 208° Southwest 221 254 26,000  Level Washington Center
08:55AM 38.7808 -77.6608 205° Southwest 221 254 26,000  Level Washington Center
08:56AM 38.7261 -77.6964 207° Southwest 227 261 26,000  Level Washington Center
08:57AM 38.6692 -77.7347 208° Southwest 227 261 26,000  Level Washington Center
08:58AM 38.6100 -77.7731 207° Southwest 227 261 26,000  Level Washington Center
08:59AM 38.5531 -77.8083 206° Southwest 232 267 26,000  Level Washington Center
09:00AM 38.4961 -77.8464 208° Southwest 232 267 26,000  Level Washington Center
09:01AM 38.4392 -77.8819 206° Southwest 232 267 26,000  Level Washington Center
09:02AM 38.3822 -77.9200 208° Southwest 232 267 26,000  Level Washington Center
09:03AM 38.3231 -77.9578 207° Southwest 232 267 26,000  Level Washington Center
09:04AM 38.2661 -77.9931 206° Southwest 232 267 26,000  Level Washington Center
09:05AM 38.2089 -78.0308 207° Southwest 232 267 26,000  Level Washington Center
09:06AM 38.1519 -78.0686 208° Southwest 237 273 26,000  Level Washington Center
09:07AM 38.0947 -78.1036 206° Southwest 237 273 26,000  Level Washington Center
09:08AM 38.0356 -78.1411 207° Southwest 237 273 26,000  Level Washington Center
09:09AM 37.9847 -78.1869 215° Southwest 242 278 26,000  Level Washington Center
09:10AM 37.9356 -78.2325 216° Southwest 235 270 26,000  Level Washington Center
09:11AM 37.8867 -78.2808 218° Southwest 230 265 26,000  Level Washington Center
09:12AM 37.8311 -78.3314 216° Southwest 230 265 26,000  Level Washington Center
09:13AM 37.7781 -78.3819 217° Southwest 230 265 26,000  Level Washington Center
09:14AM 37.7267 -78.4300 216° Southwest 230 265 26,000  Level Washington Center
09:15AM 37.6756 -78.4781 217° Southwest 230 265 26,000  Level Washington Center
09:16AM 37.6264 -78.5233 216° Southwest 230 265 26,000  Level Washington Center
09:17AM 37.5772 -78.5739 219° Southwest 230 265 26,000  Level Washington Center
09:18AM 37.5239 -78.6214 215° Southwest 230 265 26,000  Level Washington Center
09:19AM 37.4725 -78.6692 216° Southwest 230 265 26,000  Level Washington Center
09:20AM 37.4192 -78.7167 215° Southwest 230 265 26,000  Level Washington Center
09:21AM 37.3636 -78.7692 217° Southwest 230 265 26,000  Level Washington Center
09:22AM 37.3103 -78.8192 217° Southwest 230 265 26,000  Level Washington Center
09:23AM 37.2567 -78.8667 215° Southwest 230 265 26,000  Level Washington Center
09:24AM 37.2053 -78.9139 216° Southwest 230 265 26,000  Level Washington Center
09:25AM 37.1539 -78.9639 218° Southwest 230 265 26,000  Level Washington Center
09:26AM 37.1067 -79.0061 215° Southwest 230 265 26,000  Level Washington Center
09:27AM 37.0553 -79.0558 218° Southwest 230 265 26,000  Level Washington Center
09:28AM 37.0017 -79.1028 215° Southwest 230 265 26,000  Level Washington Center
09:29AM 36.9503 -79.1525 218° Southwest 230 265 26,000  Level Washington Center
09:30AM 36.8903 -79.2069 216° Southwest 230 265 26,000  Level Washington Center
09:31AM 36.8406 -79.2564 219° Southwest 230 265 26,000  Level Washington Center
09:32AM 36.7850 -79.3031 214° Southwest 230 265 26,000  Level Washington Center
09:33AM 36.7314 -79.3525 216° Southwest 235 270 26,000  Level Washington Center
09:34AM 36.6775 -79.4017 216° Southwest 235 270 26,000  Level Washington Center
09:35AM 36.6322 -79.4458 218° Southwest 235 270 26,000  Level Washington Center
09:36AM 36.5764 -79.4975 217° Southwest 240 276 26,000  Level Washington Center
09:37AM 36.5228 -79.5464 216° Southwest 240 276 26,000  Level Washington Center
09:39AM 36.3811 -79.6703 215° Southwest 244 281 26,000  Level Atlanta Center
09:40AM 36.3306 -79.7194 218° Southwest 244 281 26,000  Level Atlanta Center
09:41AM 36.2800 -79.7608 213° Southwest 244 281 26,000  Level Atlanta Center
09:42AM 36.2233 -79.8128 216° Southwest 249 287 26,000  Level Atlanta Center
09:43AM 36.1686 -79.8617 216° Southwest 249 287 26,000  Level Atlanta Center
09:44AM 36.1139 -79.9058 213° Southwest 249 287 26,000  Level Atlanta Center
09:45AM 36.0533 -79.9653 218° Southwest 249 287 26,000  Level Atlanta Center
09:46AM 35.9919 -80.0044 207° Southwest 249 287 26,000  Level Atlanta Center
09:47AM 35.9242 -80.0333 199° South 255 293 26,000  Level Atlanta Center
09:48AM 35.8586 -80.0700 204° Southwest 255 293 26,100  Climbing Atlanta Center
09:49AM 35.8033 -80.1033 206° Southwest 255 293 26,000 -60 Descending Atlanta Center
09:50AM 35.7372 -80.1294 198° South 250 288 26,000  Level Atlanta Center
09:51AM 35.6739 -80.1633 203° Southwest 250 288 26,000  Level Atlanta Center
09:52AM 35.6081 -80.1969 203° Southwest 250 288 26,000  Level Atlanta Center
09:53AM 35.5422 -80.2308 203° Southwest 250 288 26,000  Level Atlanta Center
09:54AM 35.4786 -80.2642 203° Southwest 250 288 26,000  Level Atlanta Center
09:55AM 35.4150 -80.2953 202° Southwest 250 288 26,000  Level Atlanta Center
09:56AM 35.3472 -80.3289 202° Southwest 250 288 26,000  Level Atlanta Center
09:57AM 35.2772 -80.3625 201° Southwest 255 293 26,000  Level Atlanta Center
09:58AM 35.2136 -80.3933 202° Southwest 255 293 26,000  Level Atlanta Center
09:59AM 35.1456 -80.4269 202° Southwest 255 293 26,000  Level Atlanta Center
10:01AM 35.0131 -80.4925 202° Southwest 258 297 26,000  Level Jacksonville Center
10:02AM 34.9492 -80.5247 202° Southwest 258 297 26,000  Level Jacksonville Center
10:03AM 34.8808 -80.5569 201° Southwest 258 297 26,000  Level Jacksonville Center
10:04AM 34.8167 -80.5889 202° Southwest 253 291 26,000  Level Jacksonville Center
10:05AM 34.7464 -80.6211 201° Southwest 247 284 26,000  Level Jacksonville Center
10:06AM 34.6822 -80.6531 202° Southwest 247 284 26,000  Level Jacksonville Center
10:07AM 34.6161 -80.6903 205° Southwest 247 284 26,000  Level Jacksonville Center
10:08AM 34.5542 -80.7194 201° Southwest 263 303 26,000  Level Jacksonville Center
10:09AM 34.4900 -80.7539 204° Southwest 263 303 26,000  Level Jacksonville Center
10:10AM 34.4239 -80.7856 202° Southwest 263 303 26,000  Level Jacksonville Center
10:11AM 34.3575 -80.8125 199° South 263 303 26,000  Level Jacksonville Center
10:12AM 34.2933 -80.8442 202° Southwest 258 297 26,000  Level Jacksonville Center
10:13AM 34.2250 -80.8783 202° Southwest 249 287 26,000  Level Jacksonville Center
10:14AM 34.1608 -80.9100 202° Southwest 249 287 26,000  Level Jacksonville Center
10:15AM 34.0947 -80.9417 202° Southwest 255 293 26,000  Level Jacksonville Center
10:16AM 34.0306 -80.9731 202° Southwest 255 293 26,000  Level Jacksonville Center
10:17AM 33.9622 -81.0047 201° Southwest 255 293 26,000  Level Jacksonville Center
10:18AM 33.8978 -81.0336 200° South 255 293 26,000  Level Jacksonville Center
10:19AM 33.8272 -81.0575 196° South 250 288 26,000  Level Jacksonville Center
10:20AM 33.7522 -81.0642 184° South 261 300 26,000  Level Jacksonville Center
10:21AM 33.6750 -81.0733 186° South 267 307 26,000  Level Jacksonville Center
10:22AM 33.5981 -81.0772 182° South 277 319 26,000  Level Jacksonville Center
10:23AM 33.5231 -81.0839 184° South 277 319 26,000  Level Jacksonville Center
10:24AM 33.4481 -81.0928 186° South 277 319 26,000  Level Jacksonville Center
10:25AM 33.3686 -81.0994 184° South 277 319 26,000  Level Jacksonville Center
10:26AM 33.2917 -81.1058 184° South 277 319 26,000  Level Jacksonville Center
10:27AM 33.2122 -81.1075 181° South 277 319 26,000  Level Jacksonville Center
10:28AM 33.1331 -81.1067 179° South 282 325 26,000  Level Jacksonville Center
10:29AM 33.0536 -81.1081 181° South 282 325 26,000  Level Jacksonville Center
10:30AM 32.9744 -81.1072 179° South 287 330 26,000  Level Jacksonville Center
10:31AM 32.8931 -81.1064 180° South 287 330 26,000  Level Jacksonville Center
10:32AM 32.8136 -81.1081 181° South 287 330 26,000  Level Jacksonville Center
10:33AM 32.7344 -81.1094 181° South 287 330 26,000  Level Jacksonville Center
10:34AM 32.6572 -81.1086 179° South 287 330 26,000  Level Jacksonville Center
10:35AM 32.5861 -81.1100 181° South 287 330 26,000  Level Jacksonville Center
10:36AM 32.5006 -81.1092 180° South 287 330 26,000  Level Jacksonville Center
10:37AM 32.4192 -81.1083 180° South 287 330 26,000  Level Jacksonville Center
10:38AM 32.3439 -81.1072 179° South 294 338 26,000  Level Jacksonville Center
10:39AM 32.2647 -81.1089 181° South 289 333 26,000  Level Jacksonville Center
10:40AM 32.1853 -81.1081 179° South 289 333 26,000  Level Jacksonville Center
10:41AM 32.1058 -81.1094 181° South 289 333 26,000  Level Jacksonville Center
10:42AM 32.0267 -81.1111 181° South 289 333 26,000  Level Jacksonville Center
10:43AM 31.9472 -81.1100 179° South 289 333 26,000  Level Jacksonville Center
10:44AM 31.8597 -81.1094 180° South 289 333 26,000  Level Jacksonville Center
10:45AM 31.7781 -81.1086 180° South 294 338 26,000  Level Jacksonville Center
10:46AM 31.7072 -81.1100 181° South 285 328 26,000  Level Jacksonville Center
10:47AM 31.6175 -81.1092 180° South 290 334 26,000  Level Jacksonville Center
10:48AM 31.5381 -81.1106 181° South 290 334 26,000  Level Jacksonville Center
10:49AM 31.4650 -81.1097 179° South 290 334 26,000  Level Jacksonville Center
10:50AM 31.3753 -81.1089 180° South 290 334 26,000  Level Jacksonville Center
10:51AM 31.2939 -81.1106 181° South 290 334 26,000  Level Jacksonville Center
10:52AM 31.2125 -81.1097 179° South 290 334 26,000  Level Jacksonville Center
10:53AM 31.1311 -81.1111 181° South 290 334 26,000  Level Jacksonville Center
10:54AM 31.0494 -81.1103 179° South 290 334 26,000  Level Jacksonville Center
10:55AM 30.9703 -81.1117 181° South 290 334 26,000  Level Jacksonville Center
10:56AM 30.8889 -81.1108 179° South 290 334 26,000  Level Jacksonville Center
10:57AM 30.8094 -81.1100 179° South 290 334 26,000  Level Jacksonville Center
10:58AM 30.7258 -81.1092 180° South 290 334 26,000  Level Jacksonville Center
10:59AM 30.6467 -81.1131 182° South 290 334 26,000  Level Jacksonville Center
11:00AM 30.5672 -81.1119 179° South 290 334 26,000  Level Jacksonville Center
11:01AM 30.4817 -81.1114 180° South 290 334 26,000  Level Jacksonville Center
11:02AM 30.4003 -81.1128 181° South 290 334 26,000  Level Jacksonville Center
11:03AM 30.3167 -81.1119 180° South 290 334 26,000 -180 Level Jacksonville Center
11:04AM 30.2353 -81.1133 181° South 290 334 25,700 -780 Descending Jacksonville Center
11:05AM 30.1456 -81.1150 181° South 297 342 24,500 -1,200 Descending Jacksonville Center
11:06AM 30.0536 -81.1144 180° South 318 366 23,300 -1,260 Descending Jacksonville Center
11:07AM 29.9639 -81.1136 180° South 329 379 22,000 -1,260 Descending Jacksonville Center
11:08AM 29.8681 -81.1178 182° South 317 365 20,700 -1,200 Descending Jacksonville Center
11:09AM 29.8469 -81.1133 170° South 317 365 20,400 -1,560 Descending Jacksonville Center
11:09AM 29.7864 -81.1169 183° South 329 379 19,400 -1,380 Descending Jacksonville Center
11:10AM 29.7511 -81.1150 177° South 322 371 18,900 -1,440 Descending Jacksonville Center
11:10AM 29.7008 -81.1136 179° South 329 379 18,000 -1,380 Descending Jacksonville Center
11:11AM 29.6528 -81.1144 181° South 318 366 17,500 -1,320 Descending Jacksonville Center
11:11AM 29.6069 -81.1200 186° South 324 373 16,700 -1,380 Descending Jacksonville Center
11:12AM 29.5672 -81.1136 172° South 314 361 16,100 -1,440 Descending Jacksonville Center
11:12AM 29.5236 -81.1169 184° South 324 373 15,300 -1,380 Descending Jacksonville Center
11:13AM 29.4817 -81.1153 178° South 307 353 14,700 -1,320 Descending Jacksonville Center
11:13AM 29.4422 -81.1183 184° South 309 356 14,000 -1,380 Descending Jacksonville Center
11:14AM 29.4025 -81.1142 175° South 283 326 13,300 -1,440 Descending Jacksonville Center
11:14AM 29.3647 -81.1150 181° South 287 330 12,600 -1,500 Descending Jacksonville Center
11:15AM 29.3314 -81.1156 181° South 277 319 12,000 -1,020 Descending Jacksonville Center
11:15AM 29.2875 -81.1139 178° South 287 330 11,600 -1,140 Descending Jacksonville Center
11:16AM 29.2103 -81.1083 176° South 282 325 10,300 -840 Descending Jacksonville Center
11:17AM 29.1350 -81.1000 174° South 282 325 10,000 -180 Descending Jacksonville Center
11:18AM 29.0597 -81.0967 178° South 275 316 10,000 -240 Level Jacksonville Center
11:20AM 28.9000 -81.0833 176° South 278 320 9,300 -600 Descending Orlando TRACON
11:21AM 28.8333 -81.0667 168° South 284 327 8,400 -1,020 Descending Orlando TRACON
11:22AM 28.7500 -81.0333 161° South 284 327 7,300 -1,020 Descending Orlando TRACON
11:23AM 28.6833 -81.0000 156° South 268 308 6,300 -660 Descending Orlando TRACON
11:24AM 28.6167 -80.9833 168° South 245 282 6,000 -180 Descending Orlando TRACON
11:25AM 28.6000 -81.0333 249° West 235 270 6,000  Level Orlando TRACON
11:26AM 28.6000 -81.1167 270° West 239 275 6,000  Level Orlando TRACON
11:27AM 28.6000 -81.1667 270° West 184 212 6,000  Level Orlando TRACON
11:28AM 28.6500 -81.1833 344° North 221 254 6,000 -540 Level Orlando TRACON
11:29AM 28.7167 -81.1833 360° North 214 246 5,000 -540 Descending Orlando TRACON
11:30AM 28.7167 -81.2333 270° West 154 177 5,000 -360 Level Orlando TRACON
11:31AM 28.7333 -81.2833 291° West 160 184 4,400 -480 Descending Orlando TRACON
11:32AM 28.7000 -81.3167 221° Southwest 170 196 4,000 -240 Descending Orlando TRACON
11:33AM 28.6500 -81.3167 180° South 172 198 3,900 -480 Descending Orlando TRACON
11:34AM 28.6000 -81.3167 180° South 165 190 3,200 -840 Descending Orlando TRACON
11:35AM 28.5667 -81.3167 180° South 167 192 2,300 -900 Descending Orlando TRACON
11:36AM 28.5167 -81.3167 180° South 151 174 1,400 -840 Descending Orlando TRACON
11:37AM 28.4667 -81.3167 180° South 151 174 700 -720 Descending Orlando TRACON
11:39AM 28.4294 -81.3090 184° South  Level Estimated